LKN123 WAAA-WAFO
Flight info
| Callsign | LKN123 |
|---|---|
| Flight time | 0h 53m |
| Altitude | 31000 |
| Route | VENRU W32 DIOLA |
| Aircraft | B735/M-SDFHIW/S |
Departure
| Time | 2026-04-29 16:19 |
|---|---|
| Airport | Sultan Hasanuddin International Airport (WAAA) |
Arrival
| Time | 2026-04-29 17:12 |
|---|---|
| Airport | Maleo Airport (WAFO) |
| Time | Latitude | Longitude | Altitude | Speed | Heading |
|---|---|---|---|---|---|
| 2026-04-29 15:44 | -5.07759 | 119.54740 | 41 ft | 0 kts | 300° |
| 2026-04-29 16:04 | -5.07765 | 119.54750 | 41 ft | 3 kts | 298° |
| 2026-04-29 16:04 | -5.07773 | 119.54769 | 41 ft | 0 kts | 291° |
| 2026-04-29 16:04 | -5.07779 | 119.54787 | 41 ft | 3 kts | 278° |
| 2026-04-29 16:05 | -5.07778 | 119.54806 | 39 ft | 0 kts | 241° |
| 2026-04-29 16:05 | -5.07770 | 119.54814 | 41 ft | 0 kts | 210° |
| 2026-04-29 16:05 | -5.07767 | 119.54816 | 39 ft | 0 kts | 210° |
| 2026-04-29 16:06 | -5.07769 | 119.54815 | 41 ft | 0 kts | 210° |
| 2026-04-29 16:06 | -5.07772 | 119.54813 | 41 ft | 1 kts | 210° |
| 2026-04-29 16:06 | -5.07776 | 119.54811 | 41 ft | 1 kts | 210° |
| 2026-04-29 16:07 | -5.07783 | 119.54807 | 39 ft | 1 kts | 209° |
| 2026-04-29 16:07 | -5.07792 | 119.54802 | 41 ft | 2 kts | 208° |
| 2026-04-29 16:07 | -5.07804 | 119.54795 | 40 ft | 3 kts | 207° |
| 2026-04-29 16:07 | -5.07816 | 119.54789 | 41 ft | 1 kts | 207° |
| 2026-04-29 16:08 | -5.07819 | 119.54787 | 41 ft | 0 kts | 208° |
| 2026-04-29 16:08 | -5.07825 | 119.54784 | 39 ft | 0 kts | 208° |
| 2026-04-29 16:09 | -5.07827 | 119.54783 | 41 ft | 2 kts | 208° |
| 2026-04-29 16:09 | -5.07851 | 119.54769 | 41 ft | 5 kts | 210° |
| 2026-04-29 16:10 | -5.07866 | 119.54760 | 41 ft | 1 kts | 214° |
| 2026-04-29 16:10 | -5.07885 | 119.54747 | 40 ft | 5 kts | 214° |
| 2026-04-29 16:10 | -5.07919 | 119.54725 | 41 ft | 2 kts | 209° |
| 2026-04-29 16:10 | -5.07919 | 119.54724 | 41 ft | 1 kts | 209° |
| 2026-04-29 16:11 | -5.07920 | 119.54724 | 41 ft | 0 kts | 209° |
| 2026-04-29 16:11 | -5.07930 | 119.54718 | 41 ft | 4 kts | 209° |
| 2026-04-29 16:11 | -5.07937 | 119.54715 | 41 ft | 1 kts | 209° |
| 2026-04-29 16:12 | -5.07961 | 119.54701 | 41 ft | 5 kts | 209° |
| 2026-04-29 16:12 | -5.07985 | 119.54688 | 39 ft | 6 kts | 209° |
| 2026-04-29 16:12 | -5.08040 | 119.54658 | 41 ft | 7 kts | 210° |
| 2026-04-29 16:12 | -5.08090 | 119.54627 | 40 ft | 10 kts | 211° |
| 2026-04-29 16:13 | -5.08151 | 119.54591 | 41 ft | 11 kts | 211° |
| 2026-04-29 16:13 | -5.08244 | 119.54536 | 40 ft | 21 kts | 211° |
| 2026-04-29 16:13 | -5.08366 | 119.54465 | 40 ft | 18 kts | 210° |
| 2026-04-29 16:13 | -5.08456 | 119.54413 | 41 ft | 12 kts | 210° |
| 2026-04-29 16:14 | -5.08494 | 119.54407 | 41 ft | 6 kts | 155° |
| 2026-04-29 16:14 | -5.08526 | 119.54449 | 41 ft | 9 kts | 120° |
| 2026-04-29 16:14 | -5.08563 | 119.54512 | 40 ft | 11 kts | 120° |
| 2026-04-29 16:14 | -5.08589 | 119.54542 | 39 ft | 5 kts | 157° |
| 2026-04-29 16:15 | -5.08641 | 119.54539 | 42 ft | 10 kts | 203° |
| 2026-04-29 16:15 | -5.08709 | 119.54500 | 40 ft | 13 kts | 210° |
| 2026-04-29 16:15 | -5.08790 | 119.54453 | 41 ft | 14 kts | 210° |
| 2026-04-29 16:15 | -5.08878 | 119.54402 | 41 ft | 9 kts | 210° |
| 2026-04-29 16:16 | -5.08944 | 119.54364 | 41 ft | 12 kts | 210° |
| 2026-04-29 16:16 | -5.09014 | 119.54324 | 41 ft | 10 kts | 210° |
| 2026-04-29 16:16 | -5.09072 | 119.54290 | 41 ft | 9 kts | 210° |
| 2026-04-29 16:16 | -5.09114 | 119.54273 | 41 ft | 4 kts | 180° |
| 2026-04-29 16:17 | -5.09149 | 119.54279 | 41 ft | 4 kts | 161° |
| 2026-04-29 16:17 | -5.09169 | 119.54299 | 41 ft | 6 kts | 119° |
| 2026-04-29 16:17 | -5.09192 | 119.54340 | 39 ft | 8 kts | 119° |
| 2026-04-29 16:17 | -5.09217 | 119.54388 | 42 ft | 5 kts | 104° |
| 2026-04-29 16:18 | -5.09199 | 119.54421 | 42 ft | 7 kts | 38° |
| 2026-04-29 16:18 | -5.09133 | 119.54461 | 43 ft | 28 kts | 30° |
| 2026-04-29 16:18 | -5.08761 | 119.54676 | 44 ft | 96 kts | 30° |
| 2026-04-29 16:18 | -5.07975 | 119.55128 | 39 ft | 164 kts | 31° |
| 2026-04-29 16:19 | -5.06878 | 119.55770 | 581 ft | 188 kts | 30° |
| 2026-04-29 16:19 | -5.05698 | 119.56212 | 1746 ft | 179 kts | 8° |
| 2026-04-29 16:19 | -5.04391 | 119.56235 | 2428 ft | 198 kts | 359° |
| 2026-04-29 16:19 | -5.02957 | 119.56179 | 3005 ft | 214 kts | 0° |
| 2026-04-29 16:20 | -5.01394 | 119.56133 | 3580 ft | 233 kts | 1° |
| 2026-04-29 16:20 | -4.99692 | 119.56098 | 4065 ft | 257 kts | 1° |
| 2026-04-29 16:20 | -4.97890 | 119.56229 | 4698 ft | 269 kts | 20° |
| 2026-04-29 16:20 | -4.96345 | 119.57283 | 5568 ft | 271 kts | 54° |
| 2026-04-29 16:21 | -4.95768 | 119.58387 | 6232 ft | 271 kts | 75° |
| 2026-04-29 16:21 | -4.95912 | 119.60883 | 7415 ft | 276 kts | 106° |
| 2026-04-29 16:21 | -4.96281 | 119.62783 | 8282 ft | 284 kts | 92° |
| 2026-04-29 16:21 | -4.96172 | 119.64788 | 9153 ft | 289 kts | 82° |
| 2026-04-29 16:22 | -4.95845 | 119.66789 | 10083 ft | 293 kts | 80° |
| 2026-04-29 16:22 | -4.95505 | 119.68836 | 10837 ft | 304 kts | 81° |
| 2026-04-29 16:22 | -4.95172 | 119.70995 | 11431 ft | 319 kts | 81° |
| 2026-04-29 16:22 | -4.94843 | 119.73200 | 12264 ft | 324 kts | 82° |
| 2026-04-29 16:23 | -4.94520 | 119.75450 | 13158 ft | 328 kts | 82° |
| 2026-04-29 16:23 | -4.94186 | 119.77750 | 13981 ft | 333 kts | 82° |
| 2026-04-29 16:23 | -4.93850 | 119.80034 | 14829 ft | 337 kts | 82° |
| 2026-04-29 16:23 | -4.93505 | 119.82361 | 15707 ft | 340 kts | 82° |
| 2026-04-29 16:24 | -4.93157 | 119.84724 | 16509 ft | 344 kts | 82° |
| 2026-04-29 16:24 | -4.92801 | 119.87142 | 17354 ft | 348 kts | 82° |
| 2026-04-29 16:24 | -4.92456 | 119.89514 | 18166 ft | 351 kts | 83° |
| 2026-04-29 16:24 | -4.92102 | 119.91965 | 18954 ft | 355 kts | 83° |
| 2026-04-29 16:25 | -4.91732 | 119.94432 | 19695 ft | 360 kts | 82° |
| 2026-04-29 16:25 | -4.91192 | 119.96878 | 20371 ft | 367 kts | 73° |
| 2026-04-29 16:25 | -4.90157 | 119.99238 | 21095 ft | 371 kts | 63° |
| 2026-04-29 16:25 | -4.88854 | 120.01483 | 21862 ft | 374 kts | 60° |
| 2026-04-29 16:26 | -4.87498 | 120.03742 | 22440 ft | 380 kts | 61° |
| 2026-04-29 16:26 | -4.86174 | 120.06065 | 23072 ft | 383 kts | 63° |
| 2026-04-29 16:26 | -4.84895 | 120.08400 | 23722 ft | 387 kts | 63° |
| 2026-04-29 16:26 | -4.83602 | 120.10791 | 24294 ft | 391 kts | 63° |
| 2026-04-29 16:27 | -4.82296 | 120.13199 | 24896 ft | 395 kts | 63° |
| 2026-04-29 16:27 | -4.80975 | 120.15606 | 25503 ft | 398 kts | 62° |
| 2026-04-29 16:27 | -4.79620 | 120.18061 | 26096 ft | 401 kts | 62° |
| 2026-04-29 16:27 | -4.78286 | 120.20490 | 26695 ft | 402 kts | 62° |
| 2026-04-29 16:28 | -4.76924 | 120.22960 | 27287 ft | 404 kts | 62° |
| 2026-04-29 16:28 | -4.75565 | 120.25436 | 27821 ft | 407 kts | 62° |
| 2026-04-29 16:28 | -4.74189 | 120.27948 | 28351 ft | 410 kts | 62° |
| 2026-04-29 16:28 | -4.72820 | 120.30449 | 28848 ft | 413 kts | 62° |
| 2026-04-29 16:29 | -4.71894 | 120.32137 | 28972 ft | 421 kts | 62° |
| 2026-04-29 16:29 | -4.69983 | 120.35620 | 29288 ft | 433 kts | 62° |
| 2026-04-29 16:29 | -4.69025 | 120.37390 | 29709 ft | 432 kts | 62° |
| 2026-04-29 16:29 | -4.67084 | 120.40919 | 30400 ft | 435 kts | 61° |
| 2026-04-29 16:30 | -4.66100 | 120.42688 | 30537 ft | 437 kts | 61° |
| 2026-04-29 16:30 | -4.64626 | 120.45356 | 30777 ft | 436 kts | 61° |
| 2026-04-29 16:30 | -4.63160 | 120.48029 | 30953 ft | 434 kts | 61° |
| 2026-04-29 16:30 | -4.61712 | 120.50679 | 30956 ft | 445 kts | 61° |
| 2026-04-29 16:31 | -4.60204 | 120.53431 | 30949 ft | 453 kts | 61° |
| 2026-04-29 16:31 | -4.57149 | 120.58996 | 30942 ft | 453 kts | 61° |
| 2026-04-29 16:32 | -4.54135 | 120.64472 | 30940 ft | 450 kts | 61° |
| 2026-04-29 16:32 | -4.51113 | 120.69983 | 30943 ft | 450 kts | 61° |
| 2026-04-29 16:33 | -4.46582 | 120.78245 | 30940 ft | 451 kts | 61° |
| 2026-04-29 16:33 | -4.43577 | 120.83732 | 30941 ft | 451 kts | 61° |
| 2026-04-29 16:34 | -4.40569 | 120.89225 | 30941 ft | 450 kts | 62° |
| 2026-04-29 16:34 | -4.37529 | 120.94749 | 30939 ft | 450 kts | 60° |
| 2026-04-29 16:35 | -4.35668 | 120.97232 | 30913 ft | 451 kts | 44° |
| 2026-04-29 16:35 | -4.33123 | 120.99054 | 30951 ft | 452 kts | 27° |
| 2026-04-29 16:35 | -4.30139 | 121.00099 | 30952 ft | 456 kts | 13° |
| 2026-04-29 16:35 | -4.26969 | 121.00483 | 30948 ft | 459 kts | 4° |
| 2026-04-29 16:36 | -4.20614 | 121.00694 | 30942 ft | 459 kts | 5° |
| 2026-04-29 16:36 | -4.14258 | 121.01295 | 30937 ft | 457 kts | 8° |
| 2026-04-29 16:37 | -4.07952 | 121.02001 | 30948 ft | 458 kts | 7° |
| 2026-04-29 16:37 | -4.02670 | 121.02535 | 30951 ft | 458 kts | 7° |
| 2026-04-29 16:38 | -3.95285 | 121.03269 | 30949 ft | 457 kts | 7° |
| 2026-04-29 16:38 | -3.88949 | 121.03916 | 30951 ft | 456 kts | 7° |
| 2026-04-29 16:39 | -3.82637 | 121.04552 | 30951 ft | 456 kts | 7° |
| 2026-04-29 16:39 | -3.76328 | 121.05186 | 30951 ft | 457 kts | 7° |
| 2026-04-29 16:40 | -3.69972 | 121.05842 | 30953 ft | 457 kts | 10° |
| 2026-04-29 16:40 | -3.66932 | 121.06630 | 30930 ft | 454 kts | 24° |
| 2026-04-29 16:40 | -3.64127 | 121.08053 | 30967 ft | 451 kts | 32° |
| 2026-04-29 16:41 | -3.58648 | 121.11192 | 30939 ft | 453 kts | 28° |
| 2026-04-29 16:41 | -3.52881 | 121.13663 | 30946 ft | 455 kts | 19° |
| 2026-04-29 16:42 | -3.46803 | 121.15468 | 30897 ft | 455 kts | 21° |
| 2026-04-29 16:42 | -3.43872 | 121.16691 | 30689 ft | 452 kts | 27° |
| 2026-04-29 16:42 | -3.41104 | 121.18097 | 30446 ft | 438 kts | 30° |
| 2026-04-29 16:43 | -3.38494 | 121.19514 | 30171 ft | 425 kts | 30° |
| 2026-04-29 16:43 | -3.35905 | 121.20893 | 29833 ft | 414 kts | 29° |
| 2026-04-29 16:43 | -3.33347 | 121.22205 | 29340 ft | 409 kts | 28° |
| 2026-04-29 16:43 | -3.30845 | 121.23446 | 28823 ft | 403 kts | 27° |
| 2026-04-29 16:44 | -3.28342 | 121.24690 | 28321 ft | 398 kts | 28° |
| 2026-04-29 16:44 | -3.25856 | 121.25933 | 27810 ft | 393 kts | 28° |
| 2026-04-29 16:44 | -3.23440 | 121.27137 | 27311 ft | 389 kts | 28° |
| 2026-04-29 16:44 | -3.21021 | 121.28343 | 26806 ft | 386 kts | 28° |
| 2026-04-29 16:45 | -3.18623 | 121.29540 | 26302 ft | 382 kts | 28° |
| 2026-04-29 16:45 | -3.16280 | 121.30713 | 25814 ft | 379 kts | 28° |
| 2026-04-29 16:45 | -3.13945 | 121.31929 | 25305 ft | 376 kts | 31° |
| 2026-04-29 16:45 | -3.11815 | 121.33426 | 24777 ft | 372 kts | 45° |
| 2026-04-29 16:46 | -3.10047 | 121.35314 | 24299 ft | 370 kts | 50° |
| 2026-04-29 16:46 | -3.08331 | 121.37229 | 23798 ft | 369 kts | 50° |
| 2026-04-29 16:46 | -3.06643 | 121.39124 | 23312 ft | 368 kts | 50° |
| 2026-04-29 16:46 | -3.04949 | 121.41034 | 22810 ft | 365 kts | 50° |
| 2026-04-29 16:47 | -3.03265 | 121.42934 | 22310 ft | 362 kts | 50° |
| 2026-04-29 16:47 | -3.01601 | 121.44827 | 21812 ft | 360 kts | 50° |
| 2026-04-29 16:47 | -2.99965 | 121.46678 | 21314 ft | 357 kts | 50° |
| 2026-04-29 16:47 | -2.98315 | 121.48539 | 20809 ft | 355 kts | 50° |
| 2026-04-29 16:48 | -2.96680 | 121.50384 | 20315 ft | 352 kts | 50° |
| 2026-04-29 16:48 | -2.95057 | 121.52214 | 19817 ft | 350 kts | 50° |
| 2026-04-29 16:48 | -2.93449 | 121.54037 | 19314 ft | 348 kts | 50° |
| 2026-04-29 16:48 | -2.91866 | 121.55830 | 18818 ft | 346 kts | 50° |
| 2026-04-29 16:49 | -2.90271 | 121.57638 | 18314 ft | 343 kts | 50° |
| 2026-04-29 16:49 | -2.88706 | 121.59410 | 17821 ft | 341 kts | 50° |
| 2026-04-29 16:49 | -2.87135 | 121.61185 | 17320 ft | 339 kts | 50° |
| 2026-04-29 16:49 | -2.85573 | 121.62953 | 16820 ft | 337 kts | 50° |
| 2026-04-29 16:50 | -2.84042 | 121.64688 | 16325 ft | 335 kts | 50° |
| 2026-04-29 16:50 | -2.82499 | 121.66440 | 15824 ft | 333 kts | 50° |
| 2026-04-29 16:50 | -2.80972 | 121.68185 | 15332 ft | 331 kts | 50° |
| 2026-04-29 16:50 | -2.79473 | 121.69905 | 14826 ft | 330 kts | 50° |
| 2026-04-29 16:51 | -2.77965 | 121.71637 | 14325 ft | 327 kts | 50° |
| 2026-04-29 16:51 | -2.76474 | 121.73360 | 13821 ft | 326 kts | 50° |
| 2026-04-29 16:51 | -2.74989 | 121.75077 | 13324 ft | 324 kts | 50° |
| 2026-04-29 16:51 | -2.73536 | 121.76766 | 12832 ft | 322 kts | 50° |
| 2026-04-29 16:52 | -2.72073 | 121.78471 | 12331 ft | 321 kts | 50° |
| 2026-04-29 16:52 | -2.70636 | 121.80144 | 11839 ft | 320 kts | 49° |
| 2026-04-29 16:52 | -2.69174 | 121.81846 | 11330 ft | 318 kts | 50° |
| 2026-04-29 16:52 | -2.67747 | 121.83490 | 10828 ft | 312 kts | 49° |
| 2026-04-29 16:53 | -2.66308 | 121.85087 | 10317 ft | 305 kts | 48° |
| 2026-04-29 16:53 | -2.64905 | 121.86634 | 9811 ft | 299 kts | 48° |
| 2026-04-29 16:53 | -2.63519 | 121.88164 | 9306 ft | 294 kts | 48° |
| 2026-04-29 16:53 | -2.62156 | 121.89671 | 8794 ft | 289 kts | 48° |
| 2026-04-29 16:54 | -2.60815 | 121.91152 | 8289 ft | 285 kts | 48° |
| 2026-04-29 16:54 | -2.59491 | 121.92618 | 7782 ft | 281 kts | 48° |
| 2026-04-29 16:54 | -2.58197 | 121.94048 | 7287 ft | 278 kts | 48° |
| 2026-04-29 16:54 | -2.56902 | 121.95477 | 6784 ft | 275 kts | 48° |
| 2026-04-29 16:55 | -2.55632 | 121.96873 | 6285 ft | 272 kts | 48° |
| 2026-04-29 16:55 | -2.54359 | 121.98270 | 5783 ft | 270 kts | 48° |
| 2026-04-29 16:55 | -2.53098 | 121.99657 | 5279 ft | 267 kts | 48° |
| 2026-04-29 16:55 | -2.51855 | 122.01025 | 4781 ft | 264 kts | 48° |
| 2026-04-29 16:56 | -2.50632 | 122.02360 | 4287 ft | 262 kts | 48° |
| 2026-04-29 16:56 | -2.49406 | 122.03685 | 3961 ft | 254 kts | 48° |
| 2026-04-29 16:56 | -2.48232 | 122.04958 | 3684 ft | 243 kts | 48° |
| 2026-04-29 16:56 | -2.47107 | 122.06196 | 3414 ft | 237 kts | 49° |
| 2026-04-29 16:57 | -2.46052 | 122.07349 | 3169 ft | 233 kts | 48° |
| 2026-04-29 16:57 | -2.44951 | 122.08536 | 2956 ft | 228 kts | 48° |
| 2026-04-29 16:57 | -2.43909 | 122.09665 | 2880 ft | 216 kts | 48° |
| 2026-04-29 16:57 | -2.42908 | 122.10744 | 2984 ft | 213 kts | 48° |
| 2026-04-29 16:58 | -2.41888 | 122.11851 | 3003 ft | 214 kts | 47° |
| 2026-04-29 16:58 | -2.40893 | 122.12914 | 2888 ft | 207 kts | 48° |
| 2026-04-29 16:58 | -2.39869 | 122.13866 | 2837 ft | 200 kts | 30° |
| 2026-04-29 16:58 | -2.38508 | 122.14144 | 2893 ft | 205 kts | 354° |
| 2026-04-29 16:59 | -2.37202 | 122.13559 | 2937 ft | 208 kts | 322° |
| 2026-04-29 16:59 | -2.36128 | 122.12604 | 2949 ft | 209 kts | 318° |
| 2026-04-29 16:59 | -2.35093 | 122.11634 | 2849 ft | 210 kts | 317° |
| 2026-04-29 16:59 | -2.34028 | 122.10632 | 2727 ft | 208 kts | 318° |
| 2026-04-29 17:00 | -2.32984 | 122.09652 | 2619 ft | 202 kts | 317° |
| 2026-04-29 17:00 | -2.31996 | 122.08707 | 2508 ft | 196 kts | 317° |
| 2026-04-29 17:00 | -2.31008 | 122.07774 | 2411 ft | 197 kts | 319° |
| 2026-04-29 17:00 | -2.29996 | 122.06839 | 2332 ft | 196 kts | 317° |
| 2026-04-29 17:01 | -2.29011 | 122.05913 | 2347 ft | 197 kts | 319° |
| 2026-04-29 17:01 | -2.28050 | 122.05014 | 2250 ft | 183 kts | 318° |
| 2026-04-29 17:01 | -2.27157 | 122.04165 | 2098 ft | 172 kts | 318° |
| 2026-04-29 17:01 | -2.26300 | 122.03355 | 1958 ft | 167 kts | 318° |
| 2026-04-29 17:02 | -2.25452 | 122.02551 | 1925 ft | 168 kts | 318° |
| 2026-04-29 17:02 | -2.24610 | 122.01753 | 1911 ft | 168 kts | 318° |
| 2026-04-29 17:02 | -2.23757 | 122.00946 | 1902 ft | 168 kts | 319° |
| 2026-04-29 17:02 | -2.22916 | 122.00146 | 1906 ft | 168 kts | 319° |
| 2026-04-29 17:03 | -2.22064 | 121.99342 | 1912 ft | 168 kts | 319° |
| 2026-04-29 17:03 | -2.21206 | 121.98534 | 1927 ft | 169 kts | 318° |
| 2026-04-29 17:03 | -2.20348 | 121.97728 | 1933 ft | 169 kts | 319° |
| 2026-04-29 17:03 | -2.19500 | 121.96940 | 1920 ft | 168 kts | 318° |
| 2026-04-29 17:04 | -2.18643 | 121.96140 | 1915 ft | 167 kts | 320° |
| 2026-04-29 17:04 | -2.17795 | 121.95328 | 1918 ft | 172 kts | 317° |
| 2026-04-29 17:04 | -2.16879 | 121.94483 | 1984 ft | 184 kts | 317° |
| 2026-04-29 17:04 | -2.15904 | 121.93624 | 1958 ft | 189 kts | 318° |
| 2026-04-29 17:05 | -2.14952 | 121.92738 | 1918 ft | 189 kts | 319° |
| 2026-04-29 17:05 | -2.13983 | 121.91859 | 1913 ft | 187 kts | 319° |
| 2026-04-29 17:05 | -2.13025 | 121.90964 | 1909 ft | 187 kts | 318° |
| 2026-04-29 17:05 | -2.12093 | 121.90086 | 1902 ft | 184 kts | 318° |
| 2026-04-29 17:06 | -2.11161 | 121.89204 | 1914 ft | 184 kts | 319° |
| 2026-04-29 17:06 | -2.10243 | 121.88333 | 1906 ft | 184 kts | 315° |
| 2026-04-29 17:06 | -2.09579 | 121.87241 | 1916 ft | 185 kts | 293° |
| 2026-04-29 17:06 | -2.09254 | 121.85995 | 1929 ft | 186 kts | 277° |
| 2026-04-29 17:07 | -2.09244 | 121.84704 | 1932 ft | 185 kts | 265° |
| 2026-04-29 17:07 | -2.09300 | 121.83848 | 1931 ft | 186 kts | 266° |
| 2026-04-29 17:07 | -2.09415 | 121.82134 | 1928 ft | 185 kts | 265° |
| 2026-04-29 17:07 | -2.09657 | 121.80899 | 1895 ft | 176 kts | 251° |
| 2026-04-29 17:08 | -2.10025 | 121.79836 | 1902 ft | 150 kts | 250° |
| 2026-04-29 17:08 | -2.10381 | 121.78851 | 1838 ft | 149 kts | 245° |
| 2026-04-29 17:08 | -2.10867 | 121.77956 | 1764 ft | 148 kts | 236° |
| 2026-04-29 17:08 | -2.11441 | 121.77098 | 1687 ft | 146 kts | 234° |
| 2026-04-29 17:09 | -2.12018 | 121.76256 | 1612 ft | 148 kts | 234° |
| 2026-04-29 17:09 | -2.12593 | 121.75405 | 1534 ft | 147 kts | 233° |
| 2026-04-29 17:09 | -2.13198 | 121.74596 | 1506 ft | 146 kts | 236° |
| 2026-04-29 17:09 | -2.13773 | 121.73746 | 1503 ft | 147 kts | 234° |
| 2026-04-29 17:10 | -2.14375 | 121.72920 | 1504 ft | 148 kts | 234° |
| 2026-04-29 17:10 | -2.14947 | 121.72086 | 1507 ft | 147 kts | 233° |
| 2026-04-29 17:10 | -2.15552 | 121.71264 | 1436 ft | 144 kts | 227° |
| 2026-04-29 17:10 | -2.16210 | 121.70509 | 1261 ft | 142 kts | 225° |
| 2026-04-29 17:11 | -2.16912 | 121.69834 | 948 ft | 144 kts | 219° |
| 2026-04-29 17:11 | -2.17641 | 121.69132 | 720 ft | 145 kts | 229° |
| 2026-04-29 17:11 | -2.18269 | 121.68347 | 473 ft | 142 kts | 230° |
| 2026-04-29 17:11 | -2.18923 | 121.67620 | 231 ft | 138 kts | 226° |
| 2026-04-29 17:12 | -2.19544 | 121.66924 | 32 ft | 132 kts | 227° |
| 2026-04-29 17:12 | -2.20061 | 121.66346 | 28 ft | 78 kts | 229° |
| 2026-04-29 17:12 | -2.20266 | 121.66110 | 27 ft | 19 kts | 243° |
| 2026-04-29 17:12 | -2.20277 | 121.66087 | 26 ft | 5 kts | 239° |
| 2026-04-29 17:13 | -2.20293 | 121.66087 | 26 ft | 2 kts | 129° |
| 2026-04-29 17:13 | -2.20291 | 121.66102 | 26 ft | 5 kts | 56° |
| 2026-04-29 17:13 | -2.20227 | 121.66160 | 26 ft | 16 kts | 46° |
| 2026-04-29 17:13 | -2.20169 | 121.66227 | 27 ft | 15 kts | 49° |
| 2026-04-29 17:14 | -2.20100 | 121.66305 | 28 ft | 13 kts | 48° |
| 2026-04-29 17:14 | -2.20087 | 121.66344 | 27 ft | 4 kts | 110° |
| 2026-04-29 17:14 | -2.20123 | 121.66381 | 27 ft | 9 kts | 139° |
| 2026-04-29 17:14 | -2.20168 | 121.66421 | 25 ft | 8 kts | 139° |
| 2026-04-29 17:15 | -2.20204 | 121.66452 | 25 ft | 2 kts | 153° |
| 2026-04-29 17:15 | -2.20227 | 121.66450 | 25 ft | 5 kts | 199° |
| 2026-04-29 17:15 | -2.20250 | 121.66445 | 25 ft | 4 kts | 172° |
| 2026-04-29 17:15 | -2.20279 | 121.66466 | 25 ft | 2 kts | 139° |
| 2026-04-29 17:16 | -2.20281 | 121.66468 | 27 ft | 0 kts | 139° |